| time (UTC) | temp C | wind direction | speed KPH | gust KPH | rain 1hr cm | rain 24hr cm | rain mn cm | humidity % | barometer mb |
| 20260906004508 | 13 | 219 | 6.4 | 20.9 | 0.00 | 0.25 | 0.00 | 79 | 1016.0 |
| 20260906003006 | 13 | 220 | 9.7 | 24.1 | 0.00 | 0.25 | 0.00 | 78 | 1015.7 |
| 20260906001504 | 13 | 257 | 4.8 | 22.5 | 0.00 | 0.25 | 0.00 | 78 | 1015.6 |
| 20260906000003 | 13 | 245 | 6.4 | 24.1 | 0.00 | 0.25 | 0.00 | 78 | 1015.5 |
| 20260905234603 | 13 | 238 | 4.8 | 25.7 | 0.00 | 0.25 | 0.00 | 78 | 1015.3 |
| 20260905233059 | 13 | 22 | 6.4 | 22.5 | 0.00 | 0.25 | 0.00 | 78 | 1015.1 |
| 20260905231557 | 13 | 245 | 8.0 | 24.1 | 0.00 | 0.25 | 0.00 | 78 | 1014.9 |
| 20260905230055 | 13 | 304 | 8.0 | 24.1 | 0.00 | 0.25 | 0.00 | 77 | 1014.7 |
| 20260905224603 | 13 | 298 | 6.4 | 20.9 | 0.00 | 0.25 | 0.00 | 77 | 1014.5 |
| 20260905223049 | 13 | 219 | 8.0 | 25.7 | 0.00 | 0.25 | 0.00 | 76 | 1014.2 |
| 20260905221547 | 13 | 318 | 6.4 | 24.1 | 0.00 | 0.25 | 0.00 | 77 | 1014.2 |
| 20260905220044 | 13 | 31 | 9.7 | 30.6 | 0.00 | 0.25 | 0.00 | 76 | 1013.9 |
| 20260905214541 | 13 | 249 | 6.4 | 33.8 | 0.00 | 0.25 | 0.25 | 76 | 1013.7 |
| 20260905213040 | 13 | 192 | 11.3 | 32.2 | 0.00 | 0.25 | 0.25 | 75 | 1013.6 |
| 20260905211537 | 13 | 235 | 4.8 | 19.3 | 0.00 | 0.25 | 0.25 | 76 | 1013.4 |
| 20260905210037 | 13 | 297 | 6.4 | 27.4 | 0.00 | 0.25 | 0.25 | 76 | 1013.2 |
| 20260905204533 | 13 | 5 | 6.4 | 22.5 | 0.00 | 0.25 | 0.25 | 76 | 1013.1 |
| 20260905203030 | 13 | 294 | 6.4 | 25.7 | 0.00 | 0.25 | 0.25 | 76 | 1012.9 |
| 20260905201527 | 13 | 294 | 8.0 | 20.9 | 0.00 | 0.25 | 0.25 | 76 | 1012.8 |
| 20260905200034 | 14 | 309 | 4.8 | 29.0 | 0.00 | 0.25 | 0.25 | 76 | 1012.5 |
| 20260905194525 | 14 | 231 | 8.0 | 29.0 | 0.00 | 0.25 | 0.25 | 76 | 1012.5 |
| 20260905193023 | 14 | 187 | 8.0 | 19.3 | 0.00 | 0.25 | 0.25 | 76 | 1012.5 |
| 20260905191520 | 14 | 294 | 9.7 | 20.9 | 0.00 | 0.25 | 0.25 | 76 | 1012.1 |
| 20260905190039 | 14 | 184 | 11.3 | 24.1 | 0.00 | 0.25 | 0.25 | 76 | 1012.0 |
| 20260905184516 | 14 | 307 | 6.4 | 17.7 | 0.00 | 0.25 | 0.25 | 77 | 1011.9 |
| 20260905183016 | 14 | 232 | 4.8 | 22.5 | 0.00 | 0.25 | 0.25 | 76 | 1011.8 |
| 20260905181517 | 14 | 225 | 8.0 | 22.5 | 0.00 | 0.25 | 0.25 | 76 | 1011.5 |
| 20260905180019 | 15 | 229 | 6.4 | 25.7 | 0.00 | 0.25 | 0.25 | 76 | 1011.4 |
| 20260905174510 | 15 | 40 | 9.7 | 32.2 | 0.00 | 0.46 | 0.25 | 74 | 1011.3 |
| 20260905173008 | 15 | 246 | 4.8 | 20.9 | 0.00 | 0.46 | 0.25 | 75 | 1011.0 |
| 20260905171507 | 15 | 231 | 11.3 | 32.2 | 0.00 | 0.46 | 0.25 | 73 | 1010.9 |
| 20260905170004 | 15 | 225 | 8.0 | 22.5 | 0.00 | 0.46 | 0.25 | 74 | 1010.8 |
| 20260905164503 | 15 | 269 | 8.0 | 17.7 | 0.00 | 0.46 | 0.25 | 74 | 1010.6 |
| 20260905163002 | 15 | 229 | 8.0 | 27.4 | 0.00 | 0.46 | 0.25 | 75 | 1010.4 |
| 20260905161501 | 15 | 155 | 9.7 | 22.5 | 0.00 | 0.46 | 0.25 | 77 | 1010.4 |
| 20260905160122 | 15 | 191 | 4.8 | 19.3 | 0.15 | 0.46 | 0.25 | 81 | 1010.0 |
| 20260905154559 | 15 | 273 | 3.2 | 12.9 | 0.18 | 0.46 | 0.25 | 83 | 1010.0 |
| 20260905153106 | 15 | 327 | 3.2 | 12.9 | 0.18 | 0.46 | 0.25 | 85 | 1010.0 |
| 20260905151541 | 15 | 281 | 3.2 | 19.3 | 0.15 | 0.43 | 0.23 | 81 | 1009.8 |
| 20260905150038 | 17 | 200 | 8.0 | 27.4 | 0.03 | 0.30 | 0.10 | 72 | 1009.7 |
| 20260905144525 | 17 | 296 | 14.5 | 33.8 | 0.00 | 0.30 | 0.08 | 64 | 1009.3 |
| 20260905143116 | 18 | 240 | 9.7 | 27.4 | 0.00 | 0.30 | 0.08 | 64 | 1009.2 |
| 20260905141508 | 17 | 299 | 6.4 | 25.7 | 0.00 | 0.30 | 0.08 | 67 | 1009.1 |
| 20260905140105 | 17 | 317 | 3.2 | 16.1 | 0.00 | 0.30 | 0.08 | 76 | 1009.1 |
| 20260905134546 | 17 | 207 | 6.4 | 29.0 | 0.00 | 0.43 | 0.08 | 72 | 1009.2 |
| 20260905133038 | 18 | 311 | 8.0 | 30.6 | 0.00 | 0.43 | 0.08 | 65 | 1009.0 |
| 20260905131530 | 18 | 323 | 8.0 | 29.0 | 0.00 | 0.43 | 0.08 | 65 | 1008.8 |
| 20260905130121 | 18 | 306 | 12.9 | 32.2 | 0.00 | 0.43 | 0.08 | 64 | 1008.6 |
| 20260905124545 | 19 | 234 | 8.0 | 22.5 | 0.00 | 0.51 | 0.08 | 61 | 1008.4 |
| 20260905123143 | 18 | 227 | 9.7 | 24.1 | 0.00 | 0.51 | 0.08 | 58 | 1008.2 |
| 20260905121550 | 18 | 195 | 8.0 | 25.7 | 0.00 | 0.51 | 0.08 | 64 | 1007.9 |
| 20260905120139 | 18 | 281 | 8.0 | 30.6 | 0.03 | 0.51 | 0.08 | 65 | 1007.9 |
| 20260905114605 | 18 | 206 | 6.4 | 22.5 | 0.03 | 0.64 | 0.08 | 67 | 1007.8 |
| 20260905113032 | 17 | 23 | 4.8 | 19.3 | 0.03 | 0.64 | 0.08 | 68 | 1007.8 |
| 20260905111643 | 17 | 245 | 8.0 | 27.4 | 0.03 | 0.64 | 0.08 | 67 | 1007.6 |
| 20260905110038 | 17 | 232 | 8.0 | 24.1 | 0.00 | 0.61 | 0.05 | 72 | 1007.5 |
| 20260905104643 | 17 | 142 | 11.3 | 22.5 | 0.00 | 0.86 | 0.05 | 73 | 1007.5 |
| 20260905103048 | 16 | 347 | 12.9 | 25.7 | 0.00 | 0.86 | 0.05 | 74 | 1007.5 |
| 20260905101551 | 16 | 232 | 8.0 | 24.1 | 0.00 | 0.86 | 0.05 | 76 | 1007.3 |
| 20260905100153 | 16 | 279 | 9.7 | 19.3 | 0.00 | 0.86 | 0.05 | 78 | 1007.3 |
| 20260905094600 | 15 | 281 | 9.7 | 20.9 | 0.00 | 0.99 | 0.05 | 81 | 1007.3 |
| 20260905093018 | 14 | 325 | 4.8 | 16.1 | 0.00 | 0.99 | 0.05 | 84 | 1007.2 |
| 20260905091530 | 13 | 225 | 6.4 | 16.1 | 0.00 | 0.99 | 0.05 | 83 | 1007.1 |
| 20260905090028 | 15 | 223 | 8.0 | 24.1 | 0.03 | 0.99 | 0.05 | 81 | 1007.1 |
| 20260905084530 | 15 | 252 | 8.0 | 16.1 | 0.05 | 0.99 | 0.05 | 82 | 1006.9 |
| 20260905083025 | 14 | 230 | 6.4 | 22.5 | 0.05 | 0.99 | 0.05 | 85 | 1006.8 |
| 20260905081524 | 14 | 236 | 4.8 | 14.5 | 0.05 | 0.99 | 0.05 | 85 | 1006.8 |
| 20260905080022 | 15 | 281 | 6.4 | 27.4 | 0.05 | 0.99 | 0.05 | 79 | 1006.6 |
| 20260905074521 | 16 | 258 | 9.7 | 22.5 | 0.00 | 0.99 | 0.00 | 76 | 1006.4 |
| 20260905073022 | 16 | 179 | 9.7 | 25.7 | 0.00 | 0.99 | 0.00 | 79 | 1006.2 |
| 20260905071528 | 16 | 237 | 11.3 | 22.5 | 0.00 | 0.99 | 0.00 | 79 | 1006.2 |
| 20260905070009 | 15 | 213 | 6.4 | 16.1 | 0.00 | 0.99 | 0.00 | 81 | 1006.1 |
| 20260905064506 | 15 | 258 | 6.4 | 25.7 | 0.00 | 0.99 | 0.00 | 81 | 1005.8 |
| 20260905063006 | 15 | 223 | 8.0 | 16.1 | 0.00 | 0.99 | 0.00 | 81 | 1005.9 |
| 20260905061503 | 15 | 240 | 6.4 | 19.3 | 0.00 | 0.99 | 0.00 | 82 | 1005.8 |
| 20260905060100 | 15 | 251 | 6.4 | 17.7 | 0.00 | 0.99 | 0.00 | 83 | 1005.7 |
| 20260905060001 | 15 | 273 | 6.4 | 17.7 | 0.00 | 0.99 | 0.00 | 83 | 1005.7 |
| 20260905054558 | 14 | 236 | 6.4 | 14.5 | 0.00 | 0.99 | 0.00 | 84 | 1005.6 |
| 20260905053136 | 14 | 263 | 4.8 | 14.5 | 0.00 | 0.99 | 0.00 | 84 | 1005.6 |
| 20260905051554 | 14 | 236 | 11.3 | 22.5 | 0.00 | 0.99 | 0.00 | 84 | 1005.5 |
| 20260905050050 | 14 | 250 | 4.8 | 17.7 | 0.00 | 0.99 | 0.00 | 86 | 1005.3 |
| 20260905044549 | 13 | 238 | 6.4 | 12.9 | 0.00 | 0.99 | 0.00 | 87 | 1005.1 |
| 20260905043045 | 13 | 219 | 6.4 | 24.1 | 0.00 | 0.99 | 0.00 | 86 | 1005.0 |
| 20260905041545 | 13 | 232 | 6.4 | 14.5 | 0.00 | 0.99 | 0.00 | 85 | 1004.8 |
| 20260905040040 | 13 | 205 | 6.4 | 19.3 | 0.00 | 0.99 | 0.00 | 85 | 1004.8 |
| 20260905034538 | 13 | 213 | 6.4 | 19.3 | 0.00 | 0.99 | 0.00 | 84 | 1004.7 |
| 20260905033049 | 13 | 238 | 4.8 | 16.1 | 0.00 | 0.99 | 0.00 | 84 | 1004.5 |
| 20260905031535 | 13 | 270 | 4.8 | 14.5 | 0.00 | 0.99 | 0.00 | 84 | 1004.5 |
| 20260905030030 | 13 | 251 | 4.8 | 17.7 | 0.00 | 0.99 | 0.00 | 85 | 1004.3 |
| 20260905024529 | 13 | 255 | 1.6 | 9.7 | 0.00 | 0.99 | 0.00 | 85 | 1004.2 |
| 20260905023027 | 13 | 251 | 3.2 | 14.5 | 0.00 | 0.99 | 0.00 | 84 | 1004.1 |
| 20260905021526 | 13 | 219 | 3.2 | 17.7 | 0.00 | 0.99 | 0.00 | 84 | 1004.0 |
| 20260905020026 | 13 | 296 | 4.8 | 11.3 | 0.00 | 0.99 | 0.00 | 85 | 1003.8 |
| 20260905014518 | 13 | 225 | 4.8 | 16.1 | 0.00 | 0.99 | 0.00 | 85 | 1003.5 |
| 20260905013016 | 13 | 325 | 4.8 | 19.3 | 0.00 | 0.99 | 0.00 | 84 | 1003.3 |
| 20260905011515 | 14 | 306 | 4.8 | 16.1 | 0.00 | 0.99 | 0.00 | 84 | 1003.0 |
| 20260905010013 | 14 | 240 | 4.8 | 19.3 | 0.00 | 0.99 | 0.00 | 84 | 1002.9 |